Valle Azzurra — ICEG — position and weather

sailwx.info

Track history (hours):
 
Tides and Currents Weather Stations Pressure Air Temp Water Temp Dewpoint Dewpoint Depression Visibility Wind Speed Wind Dir Waves Ship Positions

Valle Azzurra

Last reported at 2015-Jan-29 19:33 UTC. Time now 2015-Jan-29 20:25 UTC.
Position N 40°28' W 073°58'.

Length 183 m; draft 10.6 m.

Type: Tanker. MMSI: 247226600.

Date/timePositionNaut miles runAvg speedWind from/ knotsBaromVisibWave heightAir tempDewpointWater temp
2015-Jan-29 19:33N 40°28' W 073°58'8 7.4
2015-Jan-29 18:32N 40°27' W 073°48'6 5.2
2015-Jan-29 17:22N 40°29' W 073°41'0 0.0
2015-Jan-29 16:31N 40°29' W 073°41'0 0.0
2015-Jan-29 15:04N 40°29' W 073°41'0 0.1
2015-Jan-29 14:14N 40°29' W 073°40'0 0.1
2015-Jan-29 13:29N 40°29' W 073°40'2 2.0
2015-Jan-29 12:33N 40°27' W 073°41'11 7.2
2015-Jan-29 11:04N 40°18' W 073°32'5 8.7
2015-Jan-29 10:33N 40°16' W 073°27'10 8.6
2015-Jan-29 09:26N 40°09' W 073°18'8 8.3
2015-Jan-29 08:25N 40°07' W 073°07'8 9.1
2015-Jan-29 07:33N 40°07' W 072°57'9 9.1
2015-Jan-29 06:31N 40°07' W 072°45'11 9.1
2015-Jan-29 05:20N 40°06' W 072°31'7 9.2
2015-Jan-29 04:31N 40°06' W 072°21'9 9.2
2015-Jan-29 03:33N 40°06' W 072°09'8 8.2
2015-Jan-29 02:33N 40°06' W 071°59'1212.3
2015-Jan-29 01:33N 40°06' W 071°43'  
Track history (hours):
 
Tides and Currents Weather Stations Pressure Air Temp Water Temp Dewpoint Dewpoint Depression Visibility Wind Speed Wind Dir Waves Ship Positions

Valle Azzurra

Last reported at 2015-Jan-29 19:33 UTC. Time now 2015-Jan-29 20:25 UTC.
Position N 40°28' W 073°58'.

Length 183 m; draft 10.6 m.

Type: Tanker. MMSI: 247226600.

Date/timePositionNaut miles runAvg speedWind from/ knotsBaromVisibWave heightAir tempDewpointWater temp
2015-Jan-29 19:33N 40°28' W 073°58'8 7.4
2015-Jan-29 18:32N 40°27' W 073°48'6 5.2
2015-Jan-29 17:22N 40°29' W 073°41'0 0.0
2015-Jan-29 16:31N 40°29' W 073°41'0 0.0
2015-Jan-29 15:04N 40°29' W 073°41'0 0.1
2015-Jan-29 14:14N 40°29' W 073°40'0 0.1
2015-Jan-29 13:29N 40°29' W 073°40'2 2.0
2015-Jan-29 12:33N 40°27' W 073°41'11 7.2
2015-Jan-29 11:04N 40°18' W 073°32'5 8.7
2015-Jan-29 10:33N 40°16' W 073°27'10 8.6
2015-Jan-29 09:26N 40°09' W 073°18'8 8.3
2015-Jan-29 08:25N 40°07' W 073°07'8 9.1
2015-Jan-29 07:33N 40°07' W 072°57'9 9.1
2015-Jan-29 06:31N 40°07' W 072°45'11 9.1
2015-Jan-29 05:20N 40°06' W 072°31'7 9.2
2015-Jan-29 04:31N 40°06' W 072°21'9 9.2
2015-Jan-29 03:33N 40°06' W 072°09'8 8.2
2015-Jan-29 02:33N 40°06' W 071°59'1212.3
2015-Jan-29 01:33N 40°06' W 071°43'  

Dump ship's entire track history